Baza, Spain
Current Conditions -  °F | °C
As of 7:00 PM on Monday 26 Jan 2015 (Local Time) from LEAM Reporting Station
Few Clouds Few Clouds  
Wind Chill: 55°   Ceiling: Unl
Heat Index: 55°   Visibility: 6mi
Dew Point: 45°   Wind: 3mph
Humidity: 67%   Direction: 160°SSE
Pressure: 30.3"   Gusts: NA
Location:  37.49°N, 2.77°W
Report Text: LEAM 261800Z 16003KT 9999 FEW015 13/07 Q1026
Loading
Personal Weather Stations






























Interactive Weather Map New forecast layout! Learn more

10-Day Weather Forecast

Advertisements
Track Severe Weather on mobile